createdAt,value
2023-04-18T00:02:01.658Z,19.35
2023-04-18T00:04:29.513Z,18.95
2023-04-18T00:06:57.276Z,20.02
2023-04-18T00:09:26.429Z,20.85
2023-04-18T00:11:54.156Z,19.20
2023-04-18T00:14:23.085Z,19.13
2023-04-18T00:16:51.605Z,21.52
2023-04-18T00:19:20.174Z,18.83
2023-04-18T00:21:47.693Z,17.55
2023-04-18T00:24:15.534Z,23.20
2023-04-18T00:26:44.607Z,20.25
2023-04-18T00:29:12.258Z,20.15
2023-04-18T00:31:39.751Z,16.05
2023-04-18T00:34:07.624Z,21.15
2023-04-18T00:36:35.247Z,16.52
2023-04-18T00:39:02.782Z,17.30
2023-04-18T00:41:31.332Z,16.95
2023-04-18T00:44:00.218Z,15.52
2023-04-18T00:46:27.772Z,17.23
2023-04-18T00:48:55.614Z,18.25
2023-04-18T00:51:23.261Z,18.08
2023-04-18T00:53:51.316Z,16.02
2023-04-18T00:56:18.896Z,16.75
2023-04-18T00:58:46.532Z,17.38
2023-04-18T01:01:16.132Z,15.38
2023-04-18T01:03:43.863Z,16.85
2023-04-18T01:06:11.589Z,16.00
2023-04-18T01:08:39.221Z,16.98
2023-04-18T01:11:06.751Z,17.92
2023-04-18T01:13:34.268Z,15.45
2023-04-18T01:16:01.811Z,14.80
2023-04-18T01:18:31.542Z,17.13
2023-04-18T01:20:59.975Z,20.38
2023-04-18T01:23:27.567Z,20.10
2023-04-18T01:25:56.448Z,15.18
2023-04-18T01:28:24.160Z,18.83
2023-04-18T01:30:52.077Z,19.60
2023-04-18T01:33:19.579Z,13.73
2023-04-18T01:35:47.117Z,14.85
2023-04-18T01:38:14.625Z,16.95
2023-04-18T01:40:42.149Z,13.38
2023-04-18T01:43:11.186Z,15.73
2023-04-18T01:45:38.758Z,17.42
2023-04-18T01:48:06.450Z,13.50
2023-04-18T01:50:34.022Z,15.98
2023-04-18T01:53:01.899Z,15.60
2023-04-18T01:55:29.639Z,14.75
2023-04-18T01:57:57.134Z,13.57
2023-04-18T02:00:26.240Z,15.05
2023-04-18T02:02:53.942Z,14.75
2023-04-18T02:05:21.649Z,15.40
2023-04-18T02:07:50.299Z,12.38
2023-04-18T02:10:17.843Z,16.08
2023-04-18T02:12:45.366Z,18.80
2023-04-18T02:15:12.941Z,16.55
2023-04-18T02:17:42.294Z,17.80
2023-04-18T02:20:10.860Z,23.98
2023-04-18T02:22:39.596Z,26.38
2023-04-18T02:25:07.652Z,15.07
2023-04-18T02:27:35.170Z,15.95
2023-04-18T02:30:02.699Z,13.10
2023-04-18T02:32:30.277Z,15.43
2023-04-18T02:34:59.301Z,16.77
2023-04-18T02:37:26.859Z,14.52
2023-04-18T02:39:54.640Z,16.27
2023-04-18T02:42:22.129Z,12.88
2023-04-18T02:44:52.626Z,17.15
2023-04-18T02:47:20.183Z,16.77
2023-04-18T02:49:47.698Z,17.52
2023-04-18T02:52:16.637Z,13.70
2023-04-18T02:54:44.183Z,15.70
2023-04-18T02:57:11.690Z,18.58
2023-04-18T02:59:39.209Z,16.30
2023-04-18T03:02:06.823Z,15.52
2023-04-18T03:04:34.527Z,13.77
2023-04-18T03:07:02.234Z,16.35
2023-04-18T03:09:31.187Z,19.65
2023-04-18T03:11:58.740Z,16.08
2023-04-18T03:14:26.217Z,16.15
2023-04-18T03:16:55.212Z,15.63
2023-04-18T03:19:23.152Z,13.95
2023-04-18T03:21:50.772Z,16.15
2023-04-18T03:24:18.302Z,17.92
2023-04-18T03:26:47.222Z,17.00
2023-04-18T03:29:14.673Z,14.73
2023-04-18T03:31:42.375Z,19.50
2023-04-18T03:34:09.972Z,19.65
2023-04-18T03:36:37.564Z,17.65
2023-04-18T03:39:05.132Z,16.05
2023-04-18T03:41:32.694Z,17.70
2023-04-18T03:44:01.594Z,15.65
2023-04-18T03:46:29.290Z,16.35
2023-04-18T03:48:56.913Z,16.42
2023-04-18T03:51:24.461Z,17.45
2023-04-18T03:53:52.091Z,18.30
2023-04-18T03:56:19.748Z,21.63
2023-04-18T03:59:02.236Z,18.85
2023-04-18T04:01:31.351Z,19.13
2023-04-18T04:03:59.110Z,17.80
2023-04-18T04:06:27.595Z,22.05
2023-04-18T04:08:55.131Z,17.75
2023-04-18T04:11:22.872Z,20.90
2023-04-18T04:13:50.622Z,22.73
2023-04-18T04:16:18.205Z,17.10
2023-04-18T04:18:47.156Z,19.02
2023-04-18T04:21:14.671Z,17.90
2023-04-18T04:23:42.930Z,19.30
2023-04-18T04:26:10.704Z,17.55
2023-04-18T04:28:39.891Z,18.25
2023-04-18T04:31:09.334Z,24.27
2023-04-18T04:33:38.880Z,18.67
2023-04-18T04:36:08.992Z,17.85
2023-04-18T04:38:38.432Z,18.23
2023-04-18T04:41:07.560Z,18.80
2023-04-18T04:43:35.253Z,17.27
2023-04-18T04:46:03.917Z,17.73
2023-04-18T04:48:31.587Z,26.23
2023-04-18T04:51:00.050Z,19.77
2023-04-18T04:53:30.363Z,29.80
2023-04-18T04:55:58.114Z,19.60
2023-04-18T04:58:25.760Z,21.67
2023-04-18T05:00:53.833Z,25.52
2023-04-18T05:03:21.686Z,21.40
2023-04-18T05:05:49.609Z,18.92
2023-04-18T05:08:17.172Z,21.90
2023-04-18T05:10:46.132Z,18.23
2023-04-18T05:13:13.753Z,18.88
2023-04-18T05:15:41.348Z,15.35
2023-04-18T05:18:08.922Z,21.40
2023-04-18T05:20:36.499Z,19.77
2023-04-18T05:23:03.991Z,19.55
2023-04-18T05:25:31.961Z,18.15
2023-04-18T05:28:01.180Z,18.10
2023-04-18T05:30:28.825Z,17.95
2023-04-18T05:32:56.559Z,19.38
2023-04-18T05:35:24.178Z,19.67
2023-04-18T05:37:51.730Z,17.80
2023-04-18T05:40:19.249Z,21.85
2023-04-18T05:42:46.784Z,20.80
2023-04-18T05:45:15.682Z,19.55
2023-04-18T05:47:43.305Z,20.27
2023-04-18T05:50:11.372Z,18.75
2023-04-18T05:52:39.189Z,22.15
2023-04-18T05:55:07.141Z,24.15
2023-04-18T05:57:34.682Z,19.00
2023-04-18T06:00:02.358Z,21.42
2023-04-18T06:02:31.690Z,22.25
2023-04-18T06:04:59.575Z,21.17
2023-04-18T06:07:27.260Z,20.58
2023-04-18T06:09:55.454Z,21.45
2023-04-18T06:12:22.961Z,19.02
2023-04-18T06:14:51.076Z,20.92
2023-04-18T06:17:19.236Z,18.13
2023-04-18T06:19:48.447Z,19.30
2023-04-18T06:22:16.035Z,19.33
2023-04-18T06:24:43.496Z,19.42
2023-04-18T06:27:24.180Z,21.08
2023-04-18T06:29:58.647Z,17.63
2023-04-18T06:32:26.442Z,16.70
2023-04-18T06:34:55.450Z,20.23
2023-04-18T06:37:23.071Z,19.73
2023-04-18T06:39:50.700Z,16.85
2023-04-18T06:42:19.145Z,18.13
2023-04-18T06:44:48.448Z,17.25
2023-04-18T06:47:15.996Z,20.00
2023-04-18T06:49:43.660Z,17.20
2023-04-18T06:52:12.881Z,16.92
2023-04-18T06:54:40.449Z,19.05
2023-04-18T06:57:08.003Z,18.08
2023-04-18T06:59:35.619Z,19.35
2023-04-18T07:02:03.329Z,17.77
2023-04-18T07:04:30.992Z,20.75
2023-04-18T07:06:58.625Z,17.55
2023-04-18T07:09:28.013Z,19.48
2023-04-18T07:11:55.519Z,21.83
2023-04-18T07:14:24.208Z,18.65
2023-04-18T07:16:51.896Z,18.85
2023-04-18T07:19:19.458Z,18.98
2023-04-18T07:21:47.283Z,20.33
2023-04-18T07:24:15.026Z,19.38
2023-04-18T07:26:44.138Z,20.08
2023-04-18T07:29:11.717Z,15.57
2023-04-18T07:31:39.318Z,18.77
2023-04-18T07:34:06.890Z,20.13
2023-04-18T07:36:34.458Z,16.30
2023-04-18T07:39:02.456Z,17.88
2023-04-18T07:41:30.033Z,18.58
2023-04-18T07:43:59.186Z,18.00
2023-04-18T07:46:26.715Z,16.90
2023-04-18T07:48:54.357Z,21.15
2023-04-18T07:51:25.383Z,20.55
2023-04-18T07:53:53.011Z,22.83
2023-04-18T07:56:20.576Z,21.98
2023-04-18T07:58:48.121Z,22.10
2023-04-18T08:01:18.596Z,16.85
2023-04-18T08:03:47.238Z,20.00
2023-04-18T08:06:14.846Z,16.90
2023-04-18T08:08:42.389Z,18.10
2023-04-18T08:11:10.088Z,20.02
2023-04-18T08:13:37.698Z,18.17
2023-04-18T08:16:05.437Z,17.92
2023-04-18T08:18:34.462Z,17.95
2023-04-18T08:21:01.972Z,19.40
2023-04-18T08:23:29.476Z,18.13
2023-04-18T08:25:57.457Z,18.70
2023-04-18T08:28:24.981Z,17.63
2023-04-18T08:30:52.549Z,19.00
2023-04-18T08:33:20.325Z,17.55
2023-04-18T08:35:50.319Z,16.88
2023-04-18T08:38:18.250Z,18.75
2023-04-18T08:40:46.189Z,17.48
2023-04-18T08:43:15.143Z,16.20
2023-04-18T08:45:42.900Z,17.58
2023-04-18T08:48:13.104Z,17.55
2023-04-18T08:50:40.691Z,18.50
2023-04-18T08:53:10.114Z,16.98
2023-04-18T08:55:38.130Z,16.48
2023-04-18T08:58:07.010Z,20.02
2023-04-18T09:00:35.298Z,18.52
2023-04-18T09:03:03.934Z,19.75
2023-04-18T09:05:31.667Z,22.08
2023-04-18T09:07:59.395Z,17.98
2023-04-18T09:10:32.891Z,17.92
2023-04-18T09:13:03.247Z,18.45
2023-04-18T09:15:31.184Z,14.43
2023-04-18T09:18:00.039Z,18.08
2023-04-18T09:20:30.798Z,16.33
2023-04-18T09:23:00.700Z,17.80
2023-04-18T09:25:29.305Z,16.02
2023-04-18T09:28:00.857Z,17.88
2023-04-18T09:30:38.351Z,14.82
2023-04-18T09:33:07.524Z,14.90
2023-04-18T09:35:35.927Z,17.60
2023-04-18T09:38:03.591Z,17.02
2023-04-18T09:40:31.373Z,16.00
2023-04-18T09:43:00.497Z,20.02
2023-04-18T09:45:28.181Z,14.95
2023-04-18T09:47:55.840Z,15.38
2023-04-18T09:50:23.753Z,17.00
2023-04-18T09:52:51.356Z,13.13
2023-04-18T09:55:20.162Z,14.13
2023-04-18T09:57:48.487Z,15.68
2023-04-18T10:00:23.797Z,12.63
2023-04-18T10:02:53.179Z,10.65
2023-04-18T10:05:21.891Z,14.10
2023-04-18T10:07:50.878Z,15.23
2023-04-18T10:10:18.790Z,12.95
2023-04-18T10:12:48.473Z,12.85
2023-04-18T10:15:16.775Z,11.32
2023-04-18T10:18:02.781Z,13.20
2023-04-18T10:20:33.457Z,12.20
2023-04-18T10:23:01.527Z,12.80
2023-04-18T10:25:53.226Z,12.18
2023-04-18T10:28:21.456Z,13.63
2023-04-18T10:30:57.042Z,12.85
2023-04-18T10:33:31.153Z,12.57
2023-04-18T10:36:17.401Z,10.77
2023-04-18T10:38:48.769Z,10.13
2023-04-18T10:41:24.984Z,11.25
2023-04-18T10:44:11.429Z,10.50
2023-04-18T10:46:39.969Z,8.60
2023-04-18T10:49:16.156Z,12.32
2023-04-18T10:51:44.428Z,10.57
2023-04-18T10:54:13.113Z,9.50
2023-04-18T10:56:40.934Z,12.00
2023-04-18T10:59:10.592Z,9.75
2023-04-18T11:01:39.613Z,8.25
2023-04-18T11:04:12.244Z,8.40
2023-04-18T11:06:50.487Z,9.20
2023-04-18T11:09:18.036Z,8.77
2023-04-18T11:11:45.832Z,8.65
2023-04-18T11:14:14.005Z,6.80
2023-04-18T11:16:42.022Z,8.65
2023-04-18T11:19:20.013Z,9.50
2023-04-18T11:21:49.121Z,9.25
2023-04-18T11:24:22.791Z,7.80
2023-04-18T11:26:50.712Z,8.57
2023-04-18T11:29:18.686Z,8.20
2023-04-18T11:31:51.134Z,8.52
2023-04-18T11:34:18.859Z,7.72
2023-04-18T11:36:51.696Z,8.52
2023-04-18T11:39:19.372Z,8.35
2023-04-18T11:41:51.197Z,7.85
2023-04-18T11:44:18.994Z,7.10
2023-04-18T11:46:47.651Z,8.38
2023-04-18T11:49:27.709Z,9.07
2023-04-18T11:51:56.791Z,9.63
2023-04-18T11:54:36.938Z,11.93
2023-04-18T11:57:04.949Z,8.10
2023-04-18T11:59:32.646Z,9.10
2023-04-18T12:02:14.819Z,6.93
2023-04-18T12:04:57.510Z,8.15
2023-04-18T12:07:34.290Z,7.13
2023-04-18T12:10:02.141Z,7.55
2023-04-18T12:12:29.862Z,5.93
2023-04-18T12:15:01.287Z,7.88
2023-04-18T12:17:28.879Z,8.77
2023-04-18T12:19:57.711Z,7.60
2023-04-18T12:22:40.163Z,5.25
2023-04-18T12:25:11.424Z,6.75
2023-04-18T12:27:48.008Z,6.40
2023-04-18T12:30:15.843Z,6.05
2023-04-18T12:32:44.866Z,5.45
2023-04-18T12:35:12.556Z,6.65
2023-04-18T12:37:41.607Z,5.90
2023-04-18T12:40:09.961Z,7.07
2023-04-18T12:42:37.609Z,6.40
2023-04-18T12:45:07.706Z,6.53
2023-04-18T12:47:35.747Z,4.65
2023-04-18T12:50:03.501Z,4.40
2023-04-18T12:52:31.700Z,6.13
2023-04-18T12:55:00.930Z,9.43
2023-04-18T12:57:30.545Z,5.47
2023-04-18T12:59:59.244Z,4.68
2023-04-18T13:02:29.145Z,6.30
2023-04-18T13:04:57.277Z,6.00
2023-04-18T13:07:25.182Z,4.10
2023-04-18T13:09:52.760Z,4.90
2023-04-18T13:12:21.791Z,4.28
2023-04-18T13:14:49.347Z,4.53
2023-04-18T13:17:16.909Z,4.50
2023-04-18T13:19:44.861Z,4.97
2023-04-18T13:22:12.921Z,4.38
2023-04-18T13:24:40.477Z,4.00
2023-04-18T13:27:10.522Z,4.20
2023-04-18T13:29:40.079Z,4.53
2023-04-18T13:32:08.087Z,5.50
2023-04-18T13:34:37.786Z,4.40
2023-04-18T13:37:06.633Z,6.13
2023-04-18T13:39:34.355Z,6.18
2023-04-18T13:42:03.551Z,4.25
2023-04-18T13:44:32.092Z,5.35
2023-04-18T13:47:01.263Z,5.07
2023-04-18T13:49:28.797Z,4.95
2023-04-18T13:51:57.682Z,4.88
2023-04-18T13:54:26.634Z,4.95
2023-04-18T13:56:54.443Z,7.82
2023-04-18T13:59:22.099Z,8.93
2023-04-18T14:01:50.094Z,4.85
2023-04-18T14:04:19.391Z,5.20
2023-04-18T14:06:48.506Z,4.57
2023-04-18T14:09:17.079Z,6.00
2023-04-18T14:11:45.978Z,4.35
2023-04-18T14:14:13.869Z,4.65
2023-04-18T14:16:41.485Z,6.05
2023-04-18T14:19:09.041Z,5.63
2023-04-18T14:21:37.950Z,5.50
2023-04-18T14:24:06.816Z,4.82
2023-04-18T14:26:34.501Z,5.80
2023-04-18T14:29:06.992Z,6.22
2023-04-18T14:31:34.888Z,4.43
2023-04-18T14:34:02.827Z,6.10
2023-04-18T14:36:30.987Z,6.30
2023-04-18T14:38:59.889Z,5.70
2023-04-18T14:41:27.431Z,4.28
2023-04-18T14:43:55.037Z,5.15
2023-04-18T14:46:22.618Z,5.85
2023-04-18T14:48:50.200Z,4.50
2023-04-18T14:51:18.173Z,4.30
2023-04-18T14:53:46.180Z,5.53
2023-04-18T14:56:16.050Z,5.13
2023-04-18T14:58:43.903Z,3.70
2023-04-18T15:01:11.377Z,3.83
2023-04-18T15:03:38.987Z,4.00
2023-04-18T15:06:07.003Z,3.55
2023-04-18T15:08:34.807Z,6.30
2023-04-18T15:11:06.020Z,4.07
2023-04-18T15:13:36.651Z,5.95
2023-04-18T15:16:04.956Z,5.00
2023-04-18T15:18:32.532Z,4.30
2023-04-18T15:21:00.416Z,4.70
2023-04-18T15:23:27.997Z,3.85
2023-04-18T15:25:55.601Z,4.72
2023-04-18T15:28:23.134Z,5.25
2023-04-18T15:30:52.050Z,5.22
2023-04-18T15:33:20.535Z,4.28
2023-04-18T15:35:48.615Z,4.85
2023-04-18T15:38:16.238Z,4.47
2023-04-18T15:40:44.704Z,6.50
2023-04-18T15:43:13.777Z,4.95
2023-04-18T15:45:41.375Z,6.13
2023-04-18T15:48:11.453Z,5.60
2023-04-18T15:50:39.086Z,7.65
2023-04-18T15:53:06.675Z,5.85
2023-04-18T15:55:34.372Z,7.00
2023-04-18T15:58:02.038Z,5.68
2023-04-18T16:00:29.603Z,7.05
2023-04-18T16:02:57.209Z,5.57
2023-04-18T16:05:26.316Z,6.25
2023-04-18T16:07:56.090Z,5.65
2023-04-18T16:10:23.619Z,7.28
2023-04-18T16:12:51.284Z,7.13
2023-04-18T16:15:18.824Z,6.55
2023-04-18T16:17:46.444Z,7.13
2023-04-18T16:20:14.116Z,7.72
2023-04-18T16:22:43.008Z,8.20
2023-04-18T16:25:10.735Z,6.57
2023-04-18T16:27:38.297Z,6.05
2023-04-18T16:30:06.569Z,8.27
2023-04-18T16:32:34.102Z,6.47
2023-04-18T16:35:01.743Z,6.68
2023-04-18T16:37:29.444Z,6.43
2023-04-18T16:39:58.433Z,7.00
2023-04-18T16:42:26.070Z,7.40
2023-04-18T16:44:53.826Z,7.53
2023-04-18T16:47:21.336Z,11.55
2023-04-18T16:49:48.905Z,7.63
2023-04-18T16:52:17.614Z,9.88
2023-04-18T16:54:45.413Z,7.72
2023-04-18T16:57:14.446Z,9.20
2023-04-18T16:59:42.625Z,6.03
2023-04-18T17:02:10.343Z,8.73
2023-04-18T17:04:38.031Z,7.72
2023-04-18T17:07:06.393Z,7.55
2023-04-18T17:09:34.165Z,8.30
2023-04-18T17:12:01.891Z,10.60
2023-04-18T17:14:30.869Z,8.25
2023-04-18T17:16:58.508Z,10.25
2023-04-18T17:19:26.255Z,7.05
2023-04-18T17:21:53.828Z,7.88
2023-04-18T17:24:22.503Z,9.43
2023-04-18T17:26:50.354Z,6.43
2023-04-18T17:29:18.494Z,8.25
2023-04-18T17:31:47.503Z,6.70
2023-04-18T17:34:15.073Z,6.18
2023-04-18T17:36:42.853Z,8.07
2023-04-18T17:39:10.948Z,7.20
2023-04-18T17:41:39.281Z,6.88
2023-04-18T17:44:07.866Z,10.63
2023-04-18T17:46:35.874Z,7.57
2023-04-18T17:49:05.519Z,7.78
2023-04-18T17:51:33.223Z,6.45
2023-04-18T17:54:00.884Z,9.00
2023-04-18T17:56:30.459Z,6.60
2023-04-18T17:58:58.088Z,6.65
2023-04-18T18:01:26.160Z,7.85
2023-04-18T18:03:54.581Z,9.07
2023-04-18T18:06:23.674Z,7.85
2023-04-18T18:08:51.508Z,8.27
2023-04-18T18:11:19.088Z,10.93
2023-04-18T18:13:47.127Z,7.85
2023-04-18T18:16:14.656Z,6.18
2023-04-18T18:18:42.239Z,9.60
2023-04-18T18:21:10.690Z,8.70
2023-04-18T18:23:39.613Z,7.72
2023-04-18T18:26:07.126Z,7.63
2023-04-18T18:28:34.709Z,11.55
2023-04-18T18:31:02.626Z,8.00
2023-04-18T18:33:30.279Z,8.02
2023-04-18T18:35:58.635Z,9.35
2023-04-18T18:38:26.320Z,9.88
2023-04-18T18:40:55.427Z,12.82
2023-04-18T18:43:26.276Z,8.13
2023-04-18T18:45:53.936Z,10.63
2023-04-18T18:48:22.172Z,7.90
2023-04-18T18:50:51.312Z,9.85
2023-04-18T18:53:18.938Z,9.57
2023-04-18T18:55:46.658Z,10.63
2023-04-18T18:58:15.625Z,9.63
2023-04-18T19:00:43.218Z,13.27
2023-04-18T19:03:11.080Z,10.63
2023-04-18T19:05:38.662Z,9.30
2023-04-18T19:08:06.643Z,8.25
2023-04-18T19:10:34.461Z,11.13
2023-04-18T19:13:02.180Z,8.27
2023-04-18T19:15:31.240Z,8.73
2023-04-18T19:17:58.918Z,9.38
2023-04-18T19:20:28.700Z,9.63
2023-04-18T19:22:56.813Z,10.13
2023-04-18T19:25:24.481Z,10.50
2023-04-18T19:27:52.261Z,11.23
2023-04-18T19:30:19.923Z,10.77
2023-04-18T19:32:48.840Z,9.80
2023-04-18T19:35:16.403Z,11.15
2023-04-18T19:37:44.146Z,9.32
2023-04-18T19:40:12.008Z,8.40
2023-04-18T19:42:39.851Z,11.20
2023-04-18T19:45:08.074Z,10.98
2023-04-18T19:47:35.717Z,10.45
2023-04-18T19:50:06.594Z,10.88
2023-04-18T19:52:34.414Z,10.13
2023-04-18T19:55:02.131Z,9.88
2023-04-18T19:57:33.494Z,11.48
2023-04-18T20:00:01.423Z,13.55
2023-04-18T20:02:29.423Z,10.40
2023-04-18T20:04:57.416Z,11.77
2023-04-18T20:07:26.804Z,11.43
2023-04-18T20:09:54.399Z,7.68
2023-04-18T20:12:21.997Z,9.27
2023-04-18T20:14:49.646Z,11.20
2023-04-18T20:17:17.270Z,9.15
2023-04-18T20:19:47.151Z,8.77
2023-04-18T20:22:15.040Z,11.68
2023-04-18T20:24:45.075Z,12.82
2023-04-18T20:27:13.024Z,11.60
2023-04-18T20:29:40.545Z,13.88
2023-04-18T20:32:08.173Z,10.15
2023-04-18T20:34:35.883Z,9.55
2023-04-18T20:37:03.422Z,11.13
2023-04-18T20:39:31.483Z,9.77
2023-04-18T20:42:04.199Z,11.45
2023-04-18T20:44:34.372Z,11.05
2023-04-18T20:47:02.343Z,12.27
2023-04-18T20:49:30.376Z,9.75
2023-04-18T20:51:58.124Z,9.88
2023-04-18T20:54:25.658Z,11.68
2023-04-18T20:56:53.422Z,10.70
2023-04-18T20:59:22.324Z,10.07
2023-04-18T21:01:49.948Z,11.02
2023-04-18T21:04:17.966Z,13.77
2023-04-18T21:06:45.765Z,12.50
2023-04-18T21:09:13.485Z,13.38
2023-04-18T21:11:41.265Z,12.80
2023-04-18T21:14:08.859Z,12.57
2023-04-18T21:16:39.402Z,10.38
2023-04-18T21:19:07.292Z,10.00
2023-04-18T21:21:35.513Z,15.60
2023-04-18T21:24:03.292Z,12.20
2023-04-18T21:26:31.201Z,10.80
2023-04-18T21:28:59.580Z,11.88
2023-04-18T21:31:27.615Z,10.63
2023-04-18T21:33:57.036Z,12.50
2023-04-18T21:36:26.395Z,11.18
2023-04-18T21:38:54.267Z,11.77
2023-04-18T21:41:22.179Z,10.27
2023-04-18T21:43:49.794Z,9.98
2023-04-18T21:46:17.537Z,12.95
2023-04-18T21:48:46.005Z,10.82
2023-04-18T21:51:15.427Z,13.63
2023-04-18T21:53:43.399Z,10.38
2023-04-18T21:56:10.932Z,11.90
2023-04-18T21:58:39.598Z,11.20
2023-04-18T22:01:07.433Z,12.25
2023-04-18T22:03:35.420Z,13.38
2023-04-18T22:06:03.371Z,12.40
2023-04-18T22:08:32.454Z,13.38
2023-04-18T22:11:00.313Z,9.77
2023-04-18T22:13:30.174Z,10.38
2023-04-18T22:15:58.656Z,15.07
2023-04-18T22:18:30.290Z,11.68
2023-04-18T22:20:57.995Z,10.85
2023-04-18T22:23:25.741Z,12.75
2023-04-18T22:25:54.715Z,15.20
2023-04-18T22:28:23.524Z,9.90
2023-04-18T22:30:51.125Z,12.48
2023-04-18T22:33:18.667Z,10.77
2023-04-18T22:35:47.213Z,13.85
2023-04-18T22:38:14.745Z,10.88
2023-04-18T22:40:42.284Z,12.63
2023-04-18T22:43:11.379Z,16.67
2023-04-18T22:45:38.910Z,11.75
2023-04-18T22:48:11.603Z,12.70
2023-04-18T22:50:42.692Z,14.40
2023-04-18T22:53:11.016Z,14.07
2023-04-18T22:55:41.801Z,12.95
2023-04-18T22:58:09.914Z,16.40
2023-04-18T23:00:38.988Z,12.95
2023-04-18T23:03:06.659Z,13.45
2023-04-18T23:05:34.379Z,13.18
2023-04-18T23:08:02.087Z,15.60
2023-04-18T23:10:29.701Z,13.55
2023-04-18T23:12:57.627Z,13.30
2023-04-18T23:15:26.390Z,12.98
2023-04-18T23:17:55.348Z,11.55
2023-04-18T23:20:23.950Z,13.00
2023-04-18T23:22:51.774Z,14.27
2023-04-18T23:25:19.973Z,14.57
2023-04-18T23:27:48.111Z,15.32
2023-04-18T23:30:15.926Z,13.18
2023-04-18T23:32:43.626Z,17.10
2023-04-18T23:35:13.133Z,13.35
2023-04-18T23:37:42.107Z,16.13
2023-04-18T23:40:10.111Z,18.08
2023-04-18T23:42:37.824Z,16.38
2023-04-18T23:45:05.936Z,17.25
2023-04-18T23:47:33.555Z,16.83
2023-04-18T23:50:01.408Z,16.23
2023-04-18T23:52:30.460Z,19.20
2023-04-18T23:55:00.170Z,17.05
2023-04-18T23:57:28.010Z,16.40
2023-04-18T23:59:55.538Z,16.58
